Time;durP1;ratioP1;P1;durP2;ratioP2;P2;SDS_P1;SDS_P2;PMS_P1;PMS_P2;Temp;Humidity;BMP_temperature;BMP_pressure;BME280_temperature;BME280_humidity;BME280_pressure;Samples;Min_cycle;Max_cycle;Signal;HPM_P1;HPM_P2
2022/05/10 00:00:39;;;;;;;11.87;8.70;;;20.20;99.90;;;;;;5074125;28;20174;-81
2022/05/10 00:03:07;;;;;;;15.67;8.77;;;20.00;99.90;;;;;;5074448;28;20170;-83
2022/05/10 00:05:41;;;;;;;17.10;8.90;;;19.90;99.90;;;;;;5073798;28;20238;-83
2022/05/10 00:08:10;;;;;;;14.63;8.90;;;19.70;1.00;;;;;;5076237;28;20204;-83
2022/05/10 00:10:37;;;;;;;14.23;8.10;;;19.60;1.00;;;;;;5075329;28;20201;-84
2022/05/10 00:13:04;;;;;;;15.13;8.57;;;19.50;1.00;;;;;;5075228;28;20177;-82
2022/05/10 00:15:29;;;;;;;14.60;8.60;;;19.40;1.00;;;;;;5073458;28;20173;-83
2022/05/10 00:17:55;;;;;;;17.03;8.97;;;19.40;1.00;;;;;;5079212;28;20597;-81
2022/05/10 00:20:24;;;;;;;15.13;8.87;;;19.30;1.00;;;;;;5077245;28;20162;-84
2022/05/10 00:22:50;;;;;;;14.27;8.70;;;19.30;1.00;;;;;;5093362;28;20166;-79
2022/05/10 00:25:24;;;;;;;12.87;8.23;;;19.20;1.00;;;;;;5095195;28;20609;-81
2022/05/10 00:27:50;;;;;;;14.07;8.47;;;19.30;1.00;;;;;;5096598;28;20193;-80
2022/05/10 00:30:16;;;;;;;12.07;7.97;;;19.30;1.00;;;;;;5096639;28;20174;-79
2022/05/10 00:32:43;;;;;;;15.97;8.57;;;19.20;1.00;;;;;;5101241;28;20262;-80
2022/05/10 00:35:31;;;;;;;10.83;8.03;;;19.10;1.00;;;;;;5097699;28;20278;-82
2022/05/10 00:38:02;;;;;;;14.90;8.63;;;19.00;1.00;;;;;;5090305;28;20176;-81
2022/05/10 00:40:31;;;;;;;11.53;8.53;;;18.90;1.00;;;;;;5090269;28;20168;-83
2022/05/10 00:43:27;;;;;;;14.27;8.53;;;18.90;1.00;;;;;;5088875;28;20235;-80
2022/05/10 00:45:55;;;;;;;12.27;7.83;;;19.10;1.00;;;;;;5085065;28;20179;-85
2022/05/10 00:48:47;;;;;;;14.27;8.23;;;19.00;1.00;;;;;;5086066;28;20201;-84
2022/05/10 00:51:43;;;;;;;11.80;8.03;;;18.80;1.00;;;;;;5077245;28;20688;-85
2022/05/10 00:54:12;;;;;;;14.10;8.80;;;18.70;1.00;;;;;;5075275;28;20181;-84
2022/05/10 00:57:07;;;;;;;14.33;8.43;;;18.60;1.00;;;;;;5076984;28;20166;-81
2022/05/10 01:00:24;;;;;;;12.00;8.27;;;18.60;1.00;;;;;;5075670;28;20189;-82
2022/05/10 01:03:17;;;;;;;11.30;7.93;;;18.50;1.00;;;;;;5076885;28;20217;-82
2022/05/10 01:06:22;;;;;;;13.43;8.97;;;18.50;1.00;;;;;;5076268;28;20638;-83
2022/05/10 01:08:51;;;;;;;12.37;8.13;;;18.50;1.00;;;;;;5075806;28;20220;-81
2022/05/10 01:11:23;;;;;;;13.13;8.60;;;18.60;1.00;;;;;;5075071;28;20211;-82
2022/05/10 01:13:59;;;;;;;15.00;8.93;;;18.60;1.00;;;;;;5076233;28;20642;-84
2022/05/10 01:16:25;;;;;;;12.13;8.23;;;18.60;1.00;;;;;;5076538;28;20166;-83
2022/05/10 01:18:53;;;;;;;14.07;8.57;;;18.60;1.00;;;;;;5076044;28;20168;-84
2022/05/10 01:21:49;;;;;;;13.60;8.40;;;18.60;1.00;;;;;;5076339;28;20170;-82
2022/05/10 01:24:28;;;;;;;14.97;9.10;;;18.50;1.00;;;;;;5076801;28;20170;-83
2022/05/10 01:27:13;;;;;;;13.40;8.03;;;18.40;1.00;;;;;;5076962;28;20245;-86
2022/05/10 01:29:44;;;;;;;12.50;8.67;;;18.50;1.00;;;;;;5077022;28;20183;-82
2022/05/10 01:35:05;;;;;;;13.67;8.97;;;18.50;1.00;;;;;;5075345;28;20185;-83
2022/05/10 01:37:36;;;;;;;15.13;8.70;;;18.40;1.00;;;;;;5056061;28;20601;-83
2022/05/10 01:40:16;;;;;;;9.77;8.33;;;18.40;1.00;;;;;;5055632;28;20194;-84
2022/05/10 01:42:55;;;;;;;12.20;9.10;;;18.30;1.00;;;;;;5055429;28;20246;-83
2022/05/10 01:45:33;;;;;;;12.67;8.27;;;18.30;1.00;;;;;;5055571;28;20189;-84
2022/05/10 01:48:00;;;;;;;13.00;8.70;;;18.20;1.00;;;;;;5055813;28;20649;-83
2022/05/10 01:50:46;;;;;;;12.50;8.27;;;18.30;1.00;;;;;;5055536;28;20182;-84
2022/05/10 01:53:17;;;;;;;10.97;8.80;;;18.20;1.00;;;;;;5055362;28;20182;-83
2022/05/10 01:55:52;;;;;;;9.50;8.20;;;18.20;1.00;;;;;;5055650;28;20259;-83
2022/05/10 01:58:25;;;;;;;12.90;9.43;;;18.10;1.00;;;;;;5054435;28;20264;-84
2022/05/10 02:00:55;;;;;;;12.93;8.57;;;18.10;1.00;;;;;;5055822;28;20584;-82
2022/05/10 02:03:27;;;;;;;12.27;8.43;;;18.20;1.00;;;;;;5056253;28;20532;-81
2022/05/10 02:06:27;;;;;;;15.07;9.63;;;18.20;1.00;;;;;;5078879;28;20191;-77
2022/05/10 02:09:01;;;;;;;11.73;9.13;;;18.40;1.00;;;;;;5093890;28;20303;-81
2022/05/10 02:11:28;;;;;;;13.17;9.07;;;18.50;1.00;;;;;;5078414;28;20168;-83
2022/05/10 02:14:00;;;;;;;13.43;9.47;;;18.30;1.00;;;;;;5075284;28;20161;-83
2022/05/10 02:16:34;;;;;;;11.13;9.40;;;18.30;1.00;;;;;;5074643;28;20215;-83
2022/05/10 02:19:30;;;;;;;15.43;9.30;;;18.30;1.00;;;;;;5075877;28;20162;-79
2022/05/10 02:22:01;;;;;;;13.40;9.40;;;18.40;1.00;;;;;;5075948;28;20604;-81
2022/05/10 02:24:35;;;;;;;11.63;9.00;;;18.30;1.00;;;;;;5075360;28;20695;-84
2022/05/10 02:27:10;;;;;;;12.83;9.60;;;18.30;1.00;;;;;;5075245;28;20258;-84
2022/05/10 02:29:47;;;;;;;16.57;9.40;;;18.30;1.00;;;;;;5075000;28;20687;-83
2022/05/10 02:35:10;;;;;;;18.27;9.17;;;18.30;1.00;;;;;;5074977;28;20298;-83
2022/05/10 02:37:37;;;;;;;16.93;9.40;;;18.10;1.00;;;;;;5073852;28;20179;-83
2022/05/10 02:40:04;;;;;;;17.70;9.57;;;18.10;1.00;;;;;;5074578;28;20172;-83
2022/05/10 02:42:31;;;;;;;14.37;9.43;;;18.20;1.00;;;;;;5074822;28;20175;-84
2022/05/10 02:44:57;;;;;;;15.27;9.87;;;18.10;1.00;;;;;;5074484;28;20184;-82
2022/05/10 02:47:37;;;;;;;12.93;9.20;;;18.00;1.00;;;;;;5074696;28;20172;-83
2022/05/10 02:50:19;;;;;;;17.37;9.90;;;17.90;1.00;;;;;;5076555;28;20186;-80
2022/05/10 02:52:44;;;;;;;17.17;10.20;;;18.00;1.00;;;;;;5074004;28;20664;-83
2022/05/10 02:55:18;;;;;;;17.70;10.20;;;18.10;1.00;;;;;;5073935;28;20171;-83
2022/05/10 02:57:47;;;;;;;21.27;10.30;;;18.20;1.00;;;;;;5074055;28;20166;-84
2022/05/10 03:00:15;;;;;;;15.30;10.40;;;18.20;1.00;;;;;;5074230;28;20191;-82
2022/05/10 03:02:46;;;;;;;13.10;9.50;;;18.20;1.00;;;;;;5074452;28;20172;-83
2022/05/10 03:05:14;;;;;;;18.30;10.13;;;18.30;1.00;;;;;;5074305;28;20318;-82
2022/05/10 03:07:40;;;;;;;14.90;9.50;;;18.30;1.00;;;;;;5072865;28;20211;-83
2022/05/10 03:10:07;;;;;;;16.90;9.17;;;18.30;1.00;;;;;;5074435;28;20217;-84
2022/05/10 03:12:33;;;;;;;14.93;9.37;;;18.20;1.00;;;;;;5074419;28;20169;-83
2022/05/10 03:14:58;;;;;;;11.67;8.33;;;18.20;1.00;;;;;;5074398;28;20177;-84
2022/05/10 03:17:25;;;;;;;15.47;9.53;;;18.30;1.00;;;;;;5075078;28;20171;-84
2022/05/10 03:19:51;;;;;;;16.20;9.97;;;18.20;1.00;;;;;;5073844;28;20168;-84
2022/05/10 03:22:17;;;;;;;15.47;9.30;;;18.20;1.00;;;;;;5075279;28;20185;-83
2022/05/10 03:24:43;;;;;;;17.97;9.40;;;18.20;1.00;;;;;;5073846;28;20246;-83
2022/05/10 03:27:11;;;;;;;14.87;8.23;;;18.40;1.00;;;;;;5075386;28;20202;-83
2022/05/10 03:29:39;;;;;;;11.73;8.07;;;18.30;1.00;;;;;;5073369;28;20229;-83
2022/05/10 03:32:06;;;;;;;9.80;7.80;;;18.30;1.00;;;;;;5078356;28;20184;-83
2022/05/10 03:37:16;;;;;;;13.50;8.43;;;18.20;1.00;;;;;;5080541;28;20271;-82
2022/05/10 03:39:42;;;;;;;9.67;7.87;;;18.20;1.00;;;;;;5082996;28;20189;-84
2022/05/10 03:42:09;;;;;;;11.97;8.30;;;18.00;1.00;;;;;;5093540;28;20153;-83
2022/05/10 03:44:35;;;;;;;14.43;7.67;;;18.00;1.00;;;;;;5088188;28;20154;-83
2022/05/10 03:47:01;;;;;;;13.17;8.13;;;18.00;1.00;;;;;;5087340;28;20177;-83
2022/05/10 03:49:27;;;;;;;12.60;7.93;;;17.90;1.00;;;;;;5089605;28;20208;-78
2022/05/10 03:51:54;;;;;;;11.03;7.87;;;18.00;1.00;;;;;;5079393;28;20183;-84
2022/05/10 03:54:23;;;;;;;11.30;7.23;;;18.00;1.00;;;;;;5079918;28;20184;-82
2022/05/10 03:56:50;;;;;;;11.90;8.27;;;18.10;1.00;;;;;;5078877;28;20195;-83
2022/05/10 03:59:19;;;;;;;10.27;7.77;;;18.10;1.00;;;;;;5073656;28;20630;-80
2022/05/10 04:01:47;;;;;;;11.47;8.47;;;18.10;1.00;;;;;;5073256;28;20153;-83
2022/05/10 04:04:14;;;;;;;12.03;7.83;;;18.10;1.00;;;;;;5074642;28;20206;-83
2022/05/10 04:06:40;;;;;;;15.53;8.53;;;18.00;1.00;;;;;;5077699;28;20168;-83
2022/05/10 04:09:07;;;;;;;13.33;7.97;;;18.10;1.00;;;;;;5077584;28;20209;-82
2022/05/10 04:11:35;;;;;;;17.23;8.30;;;18.10;1.00;;;;;;5078766;28;20225;-80
2022/05/10 04:14:00;;;;;;;14.57;8.83;;;18.10;1.00;;;;;;5077572;28;20179;-85
2022/05/10 04:16:26;;;;;;;13.37;8.57;;;18.10;1.00;;;;;;5077457;28;20638;-85
2022/05/10 04:18:53;;;;;;;16.50;9.43;;;18.10;1.00;;;;;;5077824;28;20215;-84
2022/05/10 04:21:18;;;;;;;15.97;9.07;;;18.00;1.00;;;;;;5075412;28;20833;-84
2022/05/10 04:23:44;;;;;;;14.90;8.67;;;18.10;1.00;;;;;;5076430;28;20180;-85
2022/05/10 04:26:13;;;;;;;11.60;8.63;;;18.10;1.00;;;;;;5078347;28;20169;-84
2022/05/10 04:28:38;;;;;;;15.30;9.30;;;18.10;1.00;;;;;;5090616;28;20211;-82
2022/05/10 04:31:05;;;;;;;13.13;8.43;;;18.00;1.00;;;;;;5091927;28;20604;-81
2022/05/10 04:33:31;;;;;;;15.27;9.13;;;17.90;1.00;;;;;;5086738;28;20194;-84
2022/05/10 04:35:59;;;;;;;11.83;8.90;;;18.00;1.00;;;;;;5078656;28;20222;-83
2022/05/10 04:38:27;;;;;;;13.63;9.23;;;18.00;1.00;;;;;;5077232;28;20282;-84
2022/05/10 04:43:38;;;;;;;13.77;9.17;;;18.20;1.00;;;;;;5077175;28;20632;-82
2022/05/10 04:46:04;;;;;;;17.50;8.93;;;18.10;1.00;;;;;;5076424;28;20165;-82
2022/05/10 04:48:30;;;;;;;16.37;9.07;;;18.20;1.00;;;;;;5076991;28;20201;-80
2022/05/10 04:50:56;;;;;;;13.53;9.27;;;18.20;1.00;;;;;;5077234;28;20681;-82
2022/05/10 04:53:21;;;;;;;13.47;9.20;;;18.10;1.00;;;;;;5077050;28;20210;-81
2022/05/10 04:55:49;;;;;;;14.13;9.03;;;18.20;1.00;;;;;;5076639;28;20165;-83
2022/05/10 04:58:15;;;;;;;15.27;8.93;;;18.20;1.00;;;;;;5076749;28;20165;-84
2022/05/10 05:00:41;;;;;;;13.03;9.17;;;18.20;1.00;;;;;;5077220;28;20206;-84
2022/05/10 05:03:07;;;;;;;20.13;9.77;;;18.40;1.00;;;;;;5076900;28;20219;-83
2022/05/10 05:05:32;;;;;;;15.87;9.37;;;18.40;1.00;;;;;;5076777;28;20248;-84
2022/05/10 05:07:58;;;;;;;16.60;9.27;;;18.50;1.00;;;;;;5076869;28;20209;-85
2022/05/10 05:10:24;;;;;;;18.83;9.77;;;18.60;1.00;;;;;;5076538;28;20177;-85
2022/05/10 05:12:51;;;;;;;19.43;10.83;;;18.60;1.00;;;;;;5077197;28;20174;-81
2022/05/10 05:15:17;;;;;;;24.97;10.43;;;18.70;1.00;;;;;;5077239;28;20199;-82
2022/05/10 05:17:43;;;;;;;23.70;9.50;;;18.80;1.00;;;;;;5078700;28;20175;-85
2022/05/10 05:20:10;;;;;;;16.77;9.27;;;18.90;1.00;;;;;;5078095;28;20217;-83
2022/05/10 05:22:35;;;;;;;17.73;9.60;;;18.90;1.00;;;;;;5076830;28;20223;-85
2022/05/10 05:25:02;;;;;;;15.93;9.50;;;19.00;1.00;;;;;;5077621;28;20234;-82
2022/05/10 05:27:28;;;;;;;13.47;9.30;;;19.00;1.00;;;;;;5077041;28;20174;-82
2022/05/10 05:29:55;;;;;;;14.37;8.23;;;19.10;1.00;;;;;;5076874;28;20166;-83
2022/05/10 05:32:24;;;;;;;14.17;8.07;;;19.10;1.00;;;;;;5076649;28;20202;-83
2022/05/10 05:34:49;;;;;;;15.87;9.13;;;19.10;1.00;;;;;;5076532;28;20173;-82
2022/05/10 05:37:33;;;;;;;13.00;8.27;;;19.20;1.00;;;;;;5077019;28;20183;-84
2022/05/10 05:40:10;;;;;;;13.00;8.03;;;19.20;1.00;;;;;;5076744;28;20248;-82
2022/05/10 05:42:36;;;;;;;24.43;9.20;;;19.30;1.00;;;;;;5075609;28;20174;-83
2022/05/10 05:45:04;;;;;;;17.17;8.50;;;19.40;1.00;;;;;;5076590;28;20670;-84
2022/05/10 05:47:30;;;;;;;15.63;8.27;;;19.40;1.00;;;;;;5074776;28;20177;-82
2022/05/10 05:49:56;;;;;;;18.07;8.20;;;19.50;1.00;;;;;;5076514;28;20185;-85
2022/05/10 05:52:22;;;;;;;17.90;8.40;;;19.50;1.00;;;;;;5076850;28;20170;-84
2022/05/10 05:54:49;;;;;;;12.07;7.67;;;19.60;1.00;;;;;;5076260;28;20254;-82
2022/05/10 05:57:15;;;;;;;23.77;8.97;;;19.60;1.00;;;;;;5080023;28;20171;-81
2022/05/10 05:59:41;;;;;;;16.63;8.00;;;19.50;1.00;;;;;;5076896;28;20199;-84
2022/05/10 06:02:12;;;;;;;17.37;7.90;;;19.50;1.00;;;;;;5076949;28;20179;-84
2022/05/10 06:04:37;;;;;;;14.63;7.43;;;19.50;1.00;;;;;;5076214;28;20313;-83
2022/05/10 06:07:03;;;;;;;9.20;6.70;;;19.50;1.00;;;;;;5076100;28;20204;-88
2022/05/10 06:09:29;;;;;;;10.43;6.73;;;19.60;1.00;;;;;;5079883;28;20242;-85
2022/05/10 06:11:54;;;;;;;10.37;6.73;;;19.60;1.00;;;;;;5078831;28;20577;-83
2022/05/10 06:14:20;;;;;;;14.40;6.40;;;19.70;1.00;;;;;;5076412;28;20661;-79
2022/05/10 06:16:46;;;;;;;8.37;6.27;;;19.70;1.00;;;;;;5077812;28;20302;-83
2022/05/10 06:19:12;;;;;;;10.53;6.67;;;19.80;1.00;;;;;;5077170;28;20632;-81
2022/05/10 06:21:39;;;;;;;11.77;7.37;;;19.80;1.00;;;;;;5079001;28;20528;-80
2022/05/10 06:24:05;;;;;;;17.10;6.40;;;19.80;1.00;;;;;;5077612;28;20261;-82
2022/05/10 06:26:32;;;;;;;15.50;7.13;;;20.00;1.00;;;;;;5077550;28;20196;-85
2022/05/10 06:28:57;;;;;;;13.40;6.53;;;20.10;1.00;;;;;;5075687;28;20217;-83
2022/05/10 06:31:23;;;;;;;13.80;6.83;;;20.30;1.00;;;;;;5076028;28;20659;-83
2022/05/10 06:33:50;;;;;;;12.43;6.33;;;20.50;1.00;;;;;;5073082;28;20181;-83
2022/05/10 06:36:16;;;;;;;13.90;6.37;;;20.50;1.00;;;;;;5082088;28;20195;-84
2022/05/10 06:38:43;;;;;;;14.40;6.00;;;20.50;1.00;;;;;;5064190;28;20174;-86
2022/05/10 06:41:08;;;;;;;14.70;6.47;;;20.50;1.00;;;;;;5054550;28;20176;-83
2022/05/10 06:43:35;;;;;;;11.03;6.17;;;20.60;99.90;;;;;;5054429;28;20199;-80
2022/05/10 06:46:13;;;;;;;15.47;6.43;;;20.50;1.00;;;;;;5056710;28;20184;-83
2022/05/10 06:48:39;;;;;;;13.70;6.23;;;20.50;1.00;;;;;;5060093;28;20216;-82
2022/05/10 06:51:09;;;;;;;9.70;6.03;;;20.50;1.00;;;;;;5082722;28;20175;-82
2022/05/10 06:53:36;;;;;;;17.77;6.53;;;20.70;1.00;;;;;;5087918;28;20628;-80
2022/05/10 06:56:03;;;;;;;16.03;6.90;;;20.70;99.90;;;;;;5068682;28;20167;-82
2022/05/10 06:58:29;;;;;;;14.50;6.40;;;20.90;99.90;;;;;;5058936;28;20177;-81
2022/05/10 07:00:55;;;;;;;17.87;6.07;;;21.00;99.90;;;;;;5059698;28;20161;-81
2022/05/10 07:03:31;;;;;;;13.57;6.80;;;21.00;99.90;;;;;;5059983;28;20244;-81
2022/05/10 07:06:01;;;;;;;15.43;7.20;;;20.90;99.90;;;;;;5072647;28;20204;-80
2022/05/10 07:08:27;;;;;;;16.13;5.97;;;21.00;99.90;;;;;;5075478;28;20234;-82
2022/05/10 07:10:54;;;;;;;8.97;6.20;;;21.00;99.90;;;;;;5072127;28;20177;-82
2022/05/10 07:13:23;;;;;;;10.97;6.10;;;21.10;99.90;;;;;;5066644;28;20255;-78
2022/05/10 07:15:49;;;;;;;12.77;6.10;;;21.10;99.90;;;;;;5076698;28;20172;-79
2022/05/10 07:18:16;;;;;;;12.10;5.80;;;21.20;99.90;;;;;;5077370;28;20251;-83
2022/05/10 07:20:43;;;;;;;12.50;6.30;;;21.10;99.90;;;;;;5075426;28;20170;-84
2022/05/10 07:23:10;;;;;;;16.47;7.13;;;21.20;97.10;;;;;;5077523;28;20304;-83
2022/05/10 07:25:36;;;;;;;12.23;6.53;;;21.40;1.00;;;;;;5075340;28;20253;-83
2022/05/10 07:28:02;;;;;;;10.63;5.67;;;21.40;1.00;;;;;;5063590;28;20210;-82
2022/05/10 07:30:30;;;;;;;11.87;6.20;;;21.40;1.00;;;;;;5060916;28;20251;-85
2022/05/10 07:32:56;;;;;;;12.30;6.47;;;21.50;16.40;;;;;;5058967;28;20185;-83
2022/05/10 07:38:09;;;;;;;15.87;7.00;;;21.60;1.00;;;;;;5075434;28;20248;-84
2022/05/10 07:40:35;;;;;;;13.27;6.63;;;21.80;1.00;;;;;;5074587;28;20170;-83
2022/05/10 07:43:01;;;;;;;14.20;6.30;;;21.70;1.00;;;;;;5064195;28;20253;-81
2022/05/10 07:45:28;;;;;;;13.87;6.30;;;21.80;1.00;;;;;;5054091;28;20254;-85
2022/05/10 07:47:54;;;;;;;17.57;6.70;;;21.80;1.00;;;;;;5056172;28;20209;-84
2022/05/10 07:50:21;;;;;;;16.70;6.10;;;21.70;1.00;;;;;;5074462;28;20210;-85
2022/05/10 07:52:46;;;;;;;18.43;5.87;;;21.80;1.00;;;;;;5073449;28;20240;-84
2022/05/10 07:55:13;;;;;;;12.60;6.27;;;21.90;99.90;;;;;;5061626;28;20199;-84
2022/05/10 07:57:39;;;;;;;12.07;5.27;;;22.10;25.80;;;;;;5055763;28;20206;-84
2022/05/10 08:00:09;;;;;;;13.50;5.77;;;22.00;1.00;;;;;;5067666;28;20237;-82
2022/05/10 08:02:36;;;;;;;15.77;6.43;;;22.10;1.00;;;;;;5077159;28;20201;-81
2022/05/10 08:05:02;;;;;;;17.83;6.27;;;22.30;99.90;;;;;;5063095;28;20293;-80
2022/05/10 08:07:30;;;;;;;14.40;6.03;;;22.50;1.00;;;;;;5079996;28;20186;-84
2022/05/10 08:09:56;;;;;;;13.13;5.60;;;22.70;99.90;;;;;;5085899;28;20171;-81
2022/05/10 08:12:22;;;;;;;13.63;5.33;;;22.80;99.90;;;;;;5093029;28;20183;-81
2022/05/10 08:14:47;;;;;;;12.00;5.33;;;22.80;99.90;;;;;;5093308;28;20203;-81
2022/05/10 08:17:13;;;;;;;11.13;5.30;;;22.80;99.90;;;;;;5089377;28;20230;-83
2022/05/10 08:19:38;;;;;;;13.63;6.00;;;22.80;99.90;;;;;;5089235;28;20178;-83
2022/05/10 08:22:05;;;;;;;14.97;6.40;;;23.00;1.00;;;;;;5083891;28;20171;-84
2022/05/10 08:24:31;;;;;;;11.60;5.63;;;23.00;1.00;;;;;;5078890;28;20179;-83
2022/05/10 08:26:56;;;;;;;10.70;5.50;;;22.80;1.00;;;;;;5074467;28;20649;-82
2022/05/10 08:29:22;;;;;;;12.17;5.17;;;22.70;99.90;;;;;;5073880;28;20202;-84
2022/05/10 08:31:48;;;;;;;11.77;6.07;;;22.80;1.00;;;;;;5072897;28;20187;-84
2022/05/10 08:34:13;;;;;;;14.37;6.30;;;23.10;1.00;;;;;;5073029;28;20164;-83
2022/05/10 08:36:41;;;;;;;19.57;6.70;;;23.00;1.00;;;;;;5071734;28;20183;-84
2022/05/10 08:39:07;;;;;;;14.30;6.00;;;23.20;99.90;;;;;;5073368;28;20223;-84
2022/05/10 08:41:41;;;;;;;18.40;6.40;;;23.30;99.90;;;;;;5073545;28;20761;-83
2022/05/10 08:44:15;;;;;;;13.83;7.00;;;23.30;1.00;;;;;;5073959;28;20174;-83
2022/05/10 08:46:44;;;;;;;17.17;6.17;;;23.30;1.00;;;;;;5073369;28;20647;-84
2022/05/10 08:49:33;;;;;;;11.57;6.27;;;23.20;1.00;;;;;;5074298;28;20215;-84
2022/05/10 08:51:58;;;;;;;10.27;6.17;;;23.30;1.00;;;;;;5078162;28;20620;-83
2022/05/10 08:54:26;;;;;;;14.73;6.67;;;23.20;1.00;;;;;;5079305;28;20177;-84
2022/05/10 08:57:00;;;;;;;14.10;6.73;;;23.20;73.40;;;;;;5099633;28;20179;-84
2022/05/10 08:59:33;;;;;;;14.33;6.53;;;23.30;99.90;;;;;;5099055;28;20228;-80
2022/05/10 09:02:03;;;;;;;11.53;6.50;;;23.50;1.00;;;;;;5098920;28;20506;-81
2022/05/10 09:04:38;;;;;;;17.50;7.23;;;23.60;1.00;;;;;;5099869;28;20230;-80
2022/05/10 09:07:24;;;;;;;11.17;6.73;;;23.70;99.90;;;;;;5094917;28;20179;-83
2022/05/10 09:10:15;;;;;;;14.83;6.40;;;23.60;99.90;;;;;;5091125;28;20222;-84
2022/05/10 09:13:03;;;;;;;11.77;6.60;;;23.40;51.00;;;;;;5071751;28;20559;-83
2022/05/10 09:15:44;;;;;;;14.53;6.67;;;23.50;1.00;;;;;;5078789;28;20163;-82
2022/05/10 09:18:20;;;;;;;14.83;7.10;;;23.80;1.00;;;;;;5082758;28;20211;-81
2022/05/10 09:21:11;;;;;;;10.07;5.80;;;23.60;99.90;;;;;;5083744;28;20167;-82
2022/05/10 09:23:53;;;;;;;14.70;7.20;;;23.60;99.90;;;;;;5087317;28;20195;-84
2022/05/10 09:26:25;;;;;;;11.47;6.57;;;23.70;99.90;;;;;;5091176;28;20214;-80
2022/05/10 09:28:55;;;;;;;11.33;6.47;;;23.60;1.00;;;;;;5092752;28;20345;-79
2022/05/10 09:37:36;;;;;;;14.33;6.90;;;23.90;1.00;;;;;;5081952;28;20284;-83
2022/05/10 09:40:39;;;;;;;12.33;6.87;;;23.80;99.90;;;;;;5059931;28;20167;-80
2022/05/10 09:43:22;;;;;;;13.27;6.00;;;23.80;99.90;;;;;;5059700;28;20176;-83
2022/05/10 09:46:21;;;;;;;11.90;6.00;;;23.60;99.90;;;;;;5059557;28;20151;-81
2022/05/10 09:48:55;;;;;;;13.07;7.07;;;23.70;99.90;;;;;;5055767;28;20252;-79
2022/05/10 09:51:44;;;;;;;12.97;6.70;;;23.90;99.90;;;;;;5057417;28;20175;-81
2022/05/10 09:54:25;;;;;;;16.03;6.83;;;23.90;1.00;;;;;;5055795;28;20167;-83
2022/05/10 09:56:56;;;;;;;19.67;6.57;;;23.90;99.90;;;;;;5065112;28;20226;-83
2022/05/10 09:59:22;;;;;;;9.60;5.57;;;23.90;3.90;;;;;;5076235;28;20243;-82
2022/05/10 10:01:50;;;;;;;8.57;5.37;;;23.80;99.90;;;;;;5077161;28;20694;-83
2022/05/10 10:04:18;;;;;;;11.43;5.70;;;23.90;99.90;;;;;;5076096;28;20167;-83
2022/05/10 10:06:44;;;;;;;10.50;5.40;;;24.20;1.00;;;;;;5075227;28;20190;-84
2022/05/10 10:09:10;;;;;;;10.83;5.23;;;24.30;1.00;;;;;;5076514;28;20204;-82
2022/05/10 10:11:39;;;;;;;11.60;5.40;;;24.30;99.90;;;;;;5077079;28;20672;-83
2022/05/10 10:14:08;;;;;;;10.03;4.93;;;24.40;99.90;;;;;;5077217;28;20226;-82
2022/05/10 10:16:49;;;;;;;7.47;5.10;;;24.50;99.90;;;;;;5082586;28;20573;-83
2022/05/10 10:19:21;;;;;;;9.77;4.73;;;24.50;1.00;;;;;;5081216;28;20179;-84
2022/05/10 10:21:53;;;;;;;14.40;5.37;;;24.40;1.00;;;;;;5084329;28;20403;-80
2022/05/10 10:24:42;;;;;;;10.60;5.10;;;24.50;99.90;;;;;;5081398;28;20189;-83
2022/05/10 10:27:17;;;;;;;9.83;4.40;;;24.60;99.90;;;;;;5080600;28;20194;-84
2022/05/10 10:29:57;;;;;;;15.43;5.20;;;24.60;99.90;;;;;;5085439;28;20226;-85
2022/05/10 10:32:35;;;;;;;9.93;4.37;;;24.50;1.00;;;;;;5081200;28;20221;-85
2022/05/10 10:35:15;;;;;;;9.77;4.60;;;24.40;1.00;;;;;;5080370;28;20163;-84
2022/05/10 10:37:52;;;;;;;9.00;4.43;;;24.40;99.10;;;;;;5079811;28;20174;-84
2022/05/10 10:40:35;;;;;;;9.17;4.40;;;24.40;99.90;;;;;;5086586;28;20152;-83
2022/05/10 10:43:13;;;;;;;9.50;4.40;;;24.50;9.70;;;;;;5094028;28;20160;-82
2022/05/10 10:45:42;;;;;;;8.00;4.73;;;24.40;99.90;;;;;;5094767;28;20253;-81
2022/05/10 10:48:28;;;;;;;6.40;4.33;;;24.40;99.90;;;;;;5094878;28;20255;-86
2022/05/10 10:50:56;;;;;;;8.00;4.27;;;24.50;99.90;;;;;;5086577;28;20723;-84
2022/05/10 10:53:24;;;;;;;8.23;5.00;;;24.70;99.90;;;;;;5087098;28;20623;-78
2022/05/10 10:56:02;;;;;;;8.93;4.50;;;24.70;99.90;;;;;;5091241;28;20170;-83
2022/05/10 10:59:04;;;;;;;11.60;5.50;;;24.90;4.00;;;;;;5093258;28;20174;-81
2022/05/10 11:01:58;;;;;;;10.63;5.80;;;25.00;1.00;;;;;;5093437;28;20168;-82
2022/05/10 11:04:57;;;;;;;9.83;4.80;;;24.90;1.00;;;;;;5095028;28;20206;-82
2022/05/10 11:07:44;;;;;;;8.67;5.40;;;24.90;1.00;;;;;;5095044;28;20171;-80
2022/05/10 11:10:45;;;;;;;10.07;5.00;;;24.90;1.00;;;;;;5092787;28;20192;-84
2022/05/10 11:13:21;;;;;;;10.87;5.43;;;25.00;1.00;;;;;;5082961;28;20176;-85
2022/05/10 11:16:00;;;;;;;10.00;5.40;;;24.90;1.00;;;;;;5075908;28;20270;-84
2022/05/10 11:18:44;;;;;;;9.63;5.00;;;24.80;1.00;;;;;;5076480;28;20688;-86
2022/05/10 11:21:13;;;;;;;17.17;6.60;;;24.70;54.90;;;;;;5076282;28;20187;-79
2022/05/10 11:24:11;;;;;;;11.47;6.27;;;24.80;99.90;;;;;;5076395;28;20194;-82
2022/05/10 11:27:24;;;;;;;18.80;5.80;;;24.70;99.90;;;;;;5075867;28;20242;-83
2022/05/10 11:30:21;;;;;;;14.13;5.67;;;24.90;99.90;;;;;;5073890;28;20226;-85
2022/05/10 11:32:52;;;;;;;10.07;5.17;;;25.00;1.00;;;;;;5075321;28;20187;-81
2022/05/10 11:35:56;;;;;;;8.27;5.10;;;25.00;1.00;;;;;;5075421;28;20165;-82
2022/05/10 11:38:34;;;;;;;18.57;5.80;;;25.10;1.00;;;;;;5074853;28;20170;-81
2022/05/10 11:41:21;;;;;;;12.37;4.97;;;25.10;99.90;;;;;;5076501;28;20636;-79
2022/05/10 11:44:02;;;;;;;12.30;4.90;;;25.10;99.90;;;;;;5085748;28;20184;-80
2022/05/10 11:46:51;;;;;;;9.20;5.50;;;25.30;99.90;;;;;;5086493;28;20185;-80
2022/05/10 11:49:34;;;;;;;11.07;5.53;;;25.20;99.90;;;;;;5078015;28;20208;-81
2022/05/10 11:52:08;;;;;;;8.33;5.83;;;25.00;1.00;;;;;;5059354;28;20196;-83
2022/05/10 11:55:14;;;;;;;15.03;5.63;;;25.00;1.00;;;;;;5054394;28;20203;-81
2022/05/10 11:57:42;;;;;;;13.90;6.13;;;25.20;1.00;;;;;;5065013;28;20191;-83
2022/05/10 12:00:26;;;;;;;14.03;6.33;;;25.20;99.90;;;;;;5037892;28;20188;-83
2022/05/10 12:02:54;;;;;;;8.20;5.00;;;25.30;99.90;;;;;;5054687;28;20176;-86
2022/05/10 12:05:21;;;;;;;7.80;5.13;;;25.20;1.00;;;;;;5053501;28;20266;-82
2022/05/10 12:07:55;;;;;;;13.47;6.00;;;25.30;99.90;;;;;;5056815;28;20173;-82
2022/05/10 12:10:33;;;;;;;8.63;5.43;;;25.10;99.90;;;;;;5056591;28;20180;-83
2022/05/10 12:22:12;;;;;;;12.60;7.23;;;25.20;99.90;;;;;;5070541;28;20182;-83
2022/05/10 12:24:46;;;;;;;10.40;5.07;;;25.20;99.90;;;;;;5075774;28;20210;-83
2022/05/10 12:27:11;;;;;;;11.30;5.97;;;25.30;99.90;;;;;;5079691;28;20671;-87
2022/05/10 12:29:40;;;;;;;11.57;5.10;;;25.40;99.90;;;;;;5079288;28;20203;-83
2022/05/10 12:32:10;;;;;;;11.43;5.73;;;25.50;99.90;;;;;;5080135;28;20192;-85
2022/05/10 12:34:46;;;;;;;10.07;5.53;;;25.60;99.90;;;;;;5079696;28;20178;-84
2022/05/10 12:37:35;;;;;;;10.93;5.03;;;25.60;99.90;;;;;;5082461;28;20163;-86
2022/05/10 12:40:10;;;;;;;11.23;5.77;;;25.60;99.90;;;;;;5080357;28;20160;-84
2022/05/10 12:42:58;;;;;;;9.00;5.87;;;25.80;99.90;;;;;;5078945;28;20251;-84
2022/05/10 12:45:34;;;;;;;12.93;5.97;;;25.80;99.90;;;;;;5080758;28;20195;-85
2022/05/10 12:48:39;;;;;;;12.60;6.80;;;25.90;99.90;;;;;;5090440;28;20192;-83
2022/05/10 12:51:38;;;;;;;17.40;6.13;;;25.70;99.90;;;;;;5098044;28;20172;-84
2022/05/10 12:54:09;;;;;;;8.70;5.80;;;25.70;99.90;;;;;;5091154;28;20235;-84
2022/05/10 12:56:41;;;;;;;14.23;6.53;;;25.60;99.90;;;;;;5088227;28;20636;-84
2022/05/10 12:59:21;;;;;;;13.03;6.47;;;25.40;99.90;;;;;;5079137;28;20302;-84
2022/05/10 13:01:57;;;;;;;13.17;6.13;;;25.40;99.90;;;;;;5095757;28;20186;-80
2022/05/10 13:04:29;;;;;;;9.57;5.77;;;25.40;99.90;;;;;;5100488;28;20148;-82
2022/05/10 13:07:23;;;;;;;9.93;6.17;;;25.40;99.90;;;;;;5100725;28;20152;-80
2022/05/10 13:10:05;;;;;;;11.83;6.80;;;25.40;99.90;;;;;;5088885;28;20235;-81
2022/05/10 13:12:44;;;;;;;11.47;6.70;;;25.50;99.90;;;;;;5075622;28;20157;-80
2022/05/10 13:15:44;;;;;;;11.23;5.57;;;25.60;1.00;;;;;;5074472;28;20153;-82
2022/05/10 13:18:33;;;;;;;8.43;5.60;;;25.50;1.00;;;;;;5058337;28;20184;-83
2022/05/10 13:21:00;;;;;;;12.20;6.50;;;25.50;1.00;;;;;;5062621;28;20157;-84
2022/05/10 13:23:28;;;;;;;14.60;6.57;;;25.60;99.90;;;;;;5080871;28;20629;-79
2022/05/10 13:26:02;;;;;;;12.67;6.37;;;25.70;99.90;;;;;;5080712;28;20160;-84
2022/05/10 13:28:28;;;;;;;11.70;6.40;;;25.70;99.90;;;;;;5075236;28;20271;-81
2022/05/10 13:30:57;;;;;;;10.23;6.53;;;25.70;99.90;;;;;;5062407;28;20278;-82
2022/05/10 13:33:25;;;;;;;13.00;6.83;;;25.60;99.90;;;;;;5067798;28;20167;-85
2022/05/10 13:35:53;;;;;;;11.13;6.33;;;25.60;1.00;;;;;;5060156;28;20187;-80
2022/05/10 13:38:26;;;;;;;6.37;5.43;;;25.50;99.90;;;;;;5070088;28;20260;-84
2022/05/10 13:40:57;;;;;;;19.47;7.13;;;25.40;99.90;;;;;;5083533;28;20306;-84
2022/05/10 13:43:39;;;;;;;18.47;5.83;;;25.40;99.90;;;;;;5067170;28;20255;-83